Time;durP1;ratioP1;P1;durP2;ratioP2;P2;SDS_P1;SDS_P2;PMS_P1;PMS_P2;Temp;Humidity;BMP_temperature;BMP_pressure;BME280_temperature;BME280_humidity;BME280_pressure;Samples;Min_cycle;Max_cycle;Signal;HPM_P1;HPM_P2
2023/04/01 00:00:19;;;;;;;;;;;8.20;70.60;;;;;;4951730;28;20090;-80
2023/04/01 00:02:45;;;;;;;;;;;8.30;70.80;;;;;;4951244;28;20002;-80
2023/04/01 00:05:11;;;;;;;;;;;8.20;70.70;;;;;;4967683;28;20447;-81
2023/04/01 00:07:38;;;;;;;;;;;8.30;70.80;;;;;;4968812;28;19921;-81
2023/04/01 00:10:04;;;;;;;;;;;8.20;70.80;;;;;;5000112;28;19985;-81
2023/04/01 00:12:30;;;;;;;;;;;8.20;70.80;;;;;;4966972;28;19921;-81
2023/04/01 00:14:56;;;;;;;;;;;8.20;70.90;;;;;;5000149;28;19918;-80
2023/04/01 00:17:22;;;;;;;;;;;8.20;70.90;;;;;;4966834;28;19918;-81
2023/04/01 00:19:48;;;;;;;;;;;8.20;70.90;;;;;;4999476;28;19925;-81
2023/04/01 00:22:14;;;;;;;;;;;8.20;71.00;;;;;;4967159;28;19914;-81
2023/04/01 00:24:40;;;;;;;;;;;8.20;71.00;;;;;;4967024;28;19928;-80
2023/04/01 00:27:07;;;;;;;;;;;8.10;71.00;;;;;;4966213;28;19922;-80
2023/04/01 00:29:33;;;;;;;;;;;8.20;71.10;;;;;;4965801;28;19968;-80
2023/04/01 00:31:59;;;;;;;;;;;8.20;71.10;;;;;;4915408;28;20059;-80
2023/04/01 00:34:25;;;;;;;;;;;8.20;71.10;;;;;;4915762;28;19915;-81
2023/04/01 00:36:52;;;;;;;;;;;8.10;71.10;;;;;;4932012;28;19914;-81
2023/04/01 00:39:18;;;;;;;;;;;8.10;71.10;;;;;;4946658;28;19918;-81
2023/04/01 00:41:44;;;;;;;;;;;8.10;71.20;;;;;;4946618;28;19923;-81
2023/04/01 00:44:16;;;;;;;;;;;8.10;71.20;;;;;;4915167;28;20009;-81
2023/04/01 00:46:42;;;;;;;;;;;8.10;71.30;;;;;;4931162;28;19951;-82
2023/04/01 00:49:08;;;;;;;;;;;8.10;71.30;;;;;;4947934;28;19914;-83
2023/04/01 00:51:36;;;;;;;;;;;8.10;71.20;;;;;;4931159;28;19961;-83
2023/04/01 00:54:03;;;;;;;;;;;8.10;71.30;;;;;;4915733;28;19926;-81
2023/04/01 00:56:34;;;;;;;;;;;8.10;71.30;;;;;;4947421;28;19918;-82
2023/04/01 00:59:08;;;;;;;;;;;8.10;71.30;;;;;;4947297;28;20014;-81
2023/04/01 01:01:35;;;;;;;;;;;8.10;71.30;;;;;;4914588;28;20013;-79
2023/04/01 01:04:04;;;;;;;;;;;8.10;71.30;;;;;;4931687;28;19920;-81
2023/04/01 01:06:49;;;;;;;;;;;8.10;71.30;;;;;;4928003;28;19922;-81
2023/04/01 01:09:21;;;;;;;;;;;8.10;71.40;;;;;;4914598;28;19922;-80
2023/04/01 01:11:50;;;;;;;;;;;8.10;71.40;;;;;;4915177;28;19922;-80
2023/04/01 01:14:16;;;;;;;;;;;8.00;71.30;;;;;;4948389;28;19922;-78
2023/04/01 01:16:44;;;;;;;;;;;8.10;71.50;;;;;;4946661;28;20369;-79
2023/04/01 01:19:19;;;;;;;;;;;8.00;71.40;;;;;;4949471;28;19973;-81
2023/04/01 01:21:51;;;;;;;;;;;8.10;71.50;;;;;;4915844;29;19918;-78
2023/04/01 01:24:26;;;;;;;;;;;8.00;71.40;;;;;;4946576;28;19965;-78
2023/04/01 01:27:01;;;;;;;;;;;8.00;71.50;;;;;;4947332;28;20397;-78
2023/04/01 01:29:36;;;;;;;;;;;8.00;71.50;;;;;;4947863;28;19918;-78
2023/04/01 01:32:02;;;;;;;;;;;8.00;71.50;;;;;;4982857;28;20325;-81
2023/04/01 01:34:46;;;;;;;;;;;8.00;71.50;;;;;;4950384;28;19921;-78
2023/04/01 01:37:16;;;;;;;;;;;8.00;71.50;;;;;;4966269;28;19957;-78
2023/04/01 01:39:44;;;;;;;;;;;8.00;71.60;;;;;;4967761;28;20373;-79
2023/04/01 01:42:13;;;;;;;;;;;8.00;71.60;;;;;;4965728;28;19922;-79
2023/04/01 01:44:40;;;;;;;;;;;8.00;71.70;;;;;;4985137;28;19917;-79
2023/04/01 01:47:06;;;;;;;;;;;8.00;71.70;;;;;;4954058;28;19917;-79
2023/04/01 01:49:33;;;;;;;;;;;8.00;71.70;;;;;;4985970;28;19937;-80
2023/04/01 01:51:59;;;;;;;;;;;8.00;71.70;;;;;;4970346;28;19914;-80
2023/04/01 01:54:25;;;;;;;;;;;8.00;71.70;;;;;;4971536;28;19928;-80
2023/04/01 01:56:55;;;;;;;;;;;8.00;71.80;;;;;;4953526;28;20385;-81
2023/04/01 01:59:25;;;;;;;;;;;8.00;71.80;;;;;;5003008;28;20455;-80
2023/04/01 02:01:51;;;;;;;;;;;8.00;71.80;;;;;;4981254;28;20332;-81
2023/04/01 02:04:18;;;;;;;;;;;8.00;71.80;;;;;;4970028;28;19914;-80
2023/04/01 02:06:53;;;;;;;;;;;8.00;71.80;;;;;;4960805;28;19918;-80
2023/04/01 02:09:20;;;;;;;;;;;8.00;71.80;;;;;;4970055;28;19929;-80
2023/04/01 02:11:48;;;;;;;;;;;8.00;71.90;;;;;;4953337;28;19940;-80
2023/04/01 02:14:19;;;;;;;;;;;8.00;72.00;;;;;;4937879;28;19973;-80
2023/04/01 02:16:49;;;;;;;;;;;8.00;72.00;;;;;;4969909;28;19922;-80
2023/04/01 02:19:22;;;;;;;;;;;8.00;72.00;;;;;;4986025;28;19914;-80
2023/04/01 02:21:53;;;;;;;;;;;7.90;72.00;;;;;;4953698;28;19918;-80
2023/04/01 02:24:22;;;;;;;;;;;8.00;72.00;;;;;;4953550;28;19918;-79
2023/04/01 02:26:50;;;;;;;;;;;8.00;72.00;;;;;;4971086;28;20400;-81
2023/04/01 02:29:18;;;;;;;;;;;7.90;72.00;;;;;;4969352;28;20012;-79
2023/04/01 02:31:44;;;;;;;;;;;7.90;72.00;;;;;;4969113;28;19996;-79
2023/04/01 02:34:10;;;;;;;;;;;7.90;72.00;;;;;;4969425;28;20439;-79
2023/04/01 02:36:36;;;;;;;;;;;7.90;72.00;;;;;;4969255;28;19959;-79
2023/04/01 02:39:04;;;;;;;;;;;8.00;72.20;;;;;;4981371;28;19918;-80
2023/04/01 02:41:30;;;;;;;;;;;8.00;72.10;;;;;;4970302;28;19929;-80
2023/04/01 02:43:58;;;;;;;;;;;8.00;72.10;;;;;;4938011;28;21359;-80
2023/04/01 02:46:24;;;;;;;;;;;7.90;72.10;;;;;;4985216;28;19956;-80
2023/04/01 02:48:50;;;;;;;;;;;7.90;72.10;;;;;;4970031;28;19924;-79
2023/04/01 02:51:16;;;;;;;;;;;7.90;72.20;;;;;;4960716;28;20393;-79
2023/04/01 02:53:42;;;;;;;;;;;7.90;72.20;;;;;;4969361;28;20376;-79
2023/04/01 02:56:07;;;;;;;;;;;7.90;72.20;;;;;;4969022;28;20016;-79
2023/04/01 02:58:33;;;;;;;;;;;7.90;72.20;;;;;;4985288;28;19914;-80
2023/04/01 03:00:59;;;;;;;;;;;7.90;72.20;;;;;;4953018;28;20456;-79
2023/04/01 03:03:25;;;;;;;;;;;7.90;72.20;;;;;;4986122;28;19918;-80
2023/04/01 03:05:51;;;;;;;;;;;7.90;72.20;;;;;;4953106;28;20448;-78
2023/04/01 03:08:18;;;;;;;;;;;7.90;72.20;;;;;;4952045;28;19922;-79
2023/04/01 03:10:44;;;;;;;;;;;7.90;72.20;;;;;;4968644;28;19925;-79
2023/04/01 03:13:10;;;;;;;;;;;7.90;72.30;;;;;;4968636;28;20357;-79
2023/04/01 03:15:36;;;;;;;;;;;7.90;72.30;;;;;;4959839;28;21423;-80
2023/04/01 03:18:03;;;;;;;;;;;7.90;72.30;;;;;;4968335;28;20020;-80
2023/04/01 03:20:28;;;;;;;;;;;7.90;72.40;;;;;;4960160;28;19925;-80
2023/04/01 03:22:54;;;;;;;;;;;7.90;72.30;;;;;;4969109;28;19918;-79
2023/04/01 03:25:20;;;;;;;;;;;7.90;72.40;;;;;;4985197;28;19917;-78
2023/04/01 03:27:46;;;;;;;;;;;7.90;72.50;;;;;;4952549;28;19925;-78
2023/04/01 03:30:12;;;;;;;;;;;7.90;72.50;;;;;;4984243;28;19926;-78
2023/04/01 03:32:46;;;;;;;;;;;7.90;72.50;;;;;;4968380;28;19933;-78
2023/04/01 03:35:12;;;;;;;;;;;7.90;72.50;;;;;;4967316;28;19918;-78
2023/04/01 03:37:38;;;;;;;;;;;7.90;72.50;;;;;;4984842;28;19921;-80
2023/04/01 03:40:04;;;;;;;;;;;7.90;72.60;;;;;;4969083;28;19910;-79
2023/04/01 03:42:32;;;;;;;;;;;7.90;72.50;;;;;;4983378;28;19918;-78
2023/04/01 03:44:58;;;;;;;;;;;7.90;72.60;;;;;;4999664;28;20312;-79
2023/04/01 03:47:23;;;;;;;;;;;7.90;72.50;;;;;;4977937;28;19918;-80
2023/04/01 03:49:49;;;;;;;;;;;7.90;72.60;;;;;;4967554;28;19922;-78
2023/04/01 03:52:15;;;;;;;;;;;7.90;72.60;;;;;;4959874;28;20364;-79
2023/04/01 03:54:41;;;;;;;;;;;7.90;72.60;;;;;;4935655;28;20008;-81
2023/04/01 03:57:07;;;;;;;;;;;7.90;72.60;;;;;;4950786;28;19918;-81
2023/04/01 03:59:33;;;;;;;;;;;7.90;72.60;;;;;;4967757;28;19918;-81
2023/04/01 04:01:59;;;;;;;;;;;7.90;72.60;;;;;;4950807;28;19954;-81
2023/04/01 04:04:26;;;;;;;;;;;7.90;72.60;;;;;;4950540;28;20447;-80
2023/04/01 04:06:53;;;;;;;;;;;7.90;72.60;;;;;;4968507;28;19953;-81
2023/04/01 04:09:21;;;;;;;;;;;7.90;72.70;;;;;;4967416;28;19976;-81
2023/04/01 04:11:47;;;;;;;;;;;7.90;72.60;;;;;;4983573;28;20369;-81
2023/04/01 04:14:13;;;;;;;;;;;7.90;72.60;;;;;;4951895;28;19945;-82
2023/04/01 04:16:39;;;;;;;;;;;7.90;72.70;;;;;;4950878;28;19914;-83
2023/04/01 04:19:05;;;;;;;;;;;7.90;72.70;;;;;;4982898;28;20432;-82
2023/04/01 04:21:31;;;;;;;;;;;7.90;72.80;;;;;;4966947;28;19918;-82
2023/04/01 04:23:59;;;;;;;;;;;7.90;72.80;;;;;;4966943;28;19924;-83
2023/04/01 04:26:26;;;;;;;;;;;7.90;72.80;;;;;;4962144;28;19945;-82
2023/04/01 04:28:57;;;;;;;;;;;7.90;72.90;;;;;;4983534;28;20020;-83
2023/04/01 04:31:25;;;;;;;;;;;7.90;72.90;;;;;;4947910;28;19960;-83
2023/04/01 04:33:52;;;;;;;;;;;7.90;73.00;;;;;;4951358;28;20421;-83
2023/04/01 04:36:19;;;;;;;;;;;7.90;72.90;;;;;;4950539;28;20459;-83
2023/04/01 04:38:48;;;;;;;;;;;7.90;72.80;;;;;;4982548;28;19918;-83
2023/04/01 04:41:14;;;;;;;;;;;7.90;72.80;;;;;;4950889;28;19924;-83
2023/04/01 04:43:42;;;;;;;;;;;7.90;72.80;;;;;;4966465;28;19925;-83
2023/04/01 04:46:10;;;;;;;;;;;7.90;72.80;;;;;;4984125;28;19914;-81
2023/04/01 04:48:37;;;;;;;;;;;7.90;72.80;;;;;;4967054;28;19929;-82
2023/04/01 04:51:03;;;;;;;;;;;7.90;72.80;;;;;;4951537;28;19926;-81
2023/04/01 04:53:30;;;;;;;;;;;7.90;72.80;;;;;;5000581;28;19973;-82
2023/04/01 04:55:56;;;;;;;;;;;7.90;72.80;;;;;;4962743;28;19933;-80
2023/04/01 04:58:35;;;;;;;;;;;7.90;72.80;;;;;;4982119;28;20024;-80
2023/04/01 05:01:09;;;;;;;;;;;7.90;73.40;;;;;;4950437;28;19910;-80
2023/04/01 05:03:35;;;;;;;;;;;7.90;72.80;;;;;;4962118;28;19924;-81
2023/04/01 05:06:01;;;;;;;;;;;7.90;72.90;;;;;;4950803;28;20005;-81
2023/04/01 05:08:27;;;;;;;;;;;8.00;73.10;;;;;;4966635;28;19918;-81
2023/04/01 05:10:52;;;;;;;;;;;7.90;73.10;;;;;;4982217;28;20008;-81
2023/04/01 05:13:18;;;;;;;;;;;8.00;73.20;;;;;;4950613;28;19918;-81
2023/04/01 05:15:46;;;;;;;;;;;7.90;73.20;;;;;;4951551;28;19925;-81
2023/04/01 05:18:12;;;;;;;;;;;8.00;73.20;;;;;;5003517;28;20332;-81
2023/04/01 05:20:38;;;;;;;;;;;8.00;73.20;;;;;;4954662;28;19924;-82
2023/04/01 05:23:04;;;;;;;;;;;8.00;73.20;;;;;;4966345;28;20009;-82
2023/04/01 05:25:30;;;;;;;;;;;8.00;73.20;;;;;;4970580;28;20382;-81
2023/04/01 05:27:56;;;;;;;;;;;8.00;73.10;;;;;;4954647;28;20021;-82
2023/04/01 05:30:23;;;;;;;;;;;8.00;73.10;;;;;;4954318;28;19945;-81
2023/04/01 05:33:00;;;;;;;;;;;8.00;73.10;;;;;;4969921;28;19949;-81
2023/04/01 05:35:26;;;;;;;;;;;8.10;73.10;;;;;;4954482;28;19925;-81
2023/04/01 05:37:52;;;;;;;;;;;8.00;73.00;;;;;;4986540;28;19922;-81
2023/04/01 05:40:20;;;;;;;;;;;8.10;73.00;;;;;;4971006;28;20384;-80
2023/04/01 05:42:46;;;;;;;;;;;8.10;73.00;;;;;;4966631;28;19953;-81
2023/04/01 05:45:15;;;;;;;;;;;8.10;73.10;;;;;;4954250;28;20309;-80
2023/04/01 05:48:03;;;;;;;;;;;8.10;73.20;;;;;;4957121;28;19918;-82
2023/04/01 05:50:35;;;;;;;;;;;8.10;73.20;;;;;;4986446;28;19942;-80
2023/04/01 05:53:02;;;;;;;;;;;8.10;73.30;;;;;;4968604;28;19922;-81
2023/04/01 05:55:28;;;;;;;;;;;8.20;73.30;;;;;;4953557;28;20365;-80
2023/04/01 05:57:54;;;;;;;;;;;8.20;73.30;;;;;;4969856;28;20008;-80
2023/04/01 06:00:20;;;;;;;;;;;8.20;73.30;;;;;;4960932;28;19976;-81
2023/04/01 06:02:46;;;;;;;;;;;8.30;73.50;;;;;;4969326;28;19918;-80
2023/04/01 06:05:12;;;;;;;;;;;8.30;73.40;;;;;;4954201;28;19918;-80
2023/04/01 06:07:38;;;;;;;;;;;8.30;73.40;;;;;;4969908;28;19918;-80
2023/04/01 06:10:11;;;;;;;;;;;8.30;73.40;;;;;;4970848;28;20312;-81
2023/04/01 06:12:37;;;;;;;;;;;8.30;73.40;;;;;;4966134;28;19926;-81
2023/04/01 06:15:03;;;;;;;;;;;8.40;73.60;;;;;;4968503;28;20381;-83
2023/04/01 06:17:31;;;;;;;;;;;8.40;73.70;;;;;;4954963;28;19937;-83
2023/04/01 06:20:03;;;;;;;;;;;8.40;73.50;;;;;;4970776;28;19925;-82
2023/04/01 06:22:29;;;;;;;;;;;8.40;73.80;;;;;;4970091;28;19969;-81
2023/04/01 06:25:05;;;;;;;;;;;8.50;73.30;;;;;;4987304;28;19917;-82
2023/04/01 06:27:50;;;;;;;;;;;8.50;73.30;;;;;;4968967;28;19918;-81
2023/04/01 06:30:36;;;;;;;;;;;8.50;73.40;;;;;;4960725;28;19985;-80
2023/04/01 06:33:10;;;;;;;;;;;8.50;73.30;;;;;;4945775;28;19988;-83
2023/04/01 06:35:55;;;;;;;;;;;8.50;73.40;;;;;;4984991;28;19925;-79
2023/04/01 06:38:27;;;;;;;;;;;8.50;73.40;;;;;;4966638;28;19922;-77
2023/04/01 06:41:11;;;;;;;;;;;8.50;73.30;;;;;;4977733;28;19929;-82
2023/04/01 06:43:43;;;;;;;;;;;8.60;73.30;;;;;;4984219;28;19918;-76
2023/04/01 06:46:18;;;;;;;;;;;8.60;73.40;;;;;;4967666;28;19933;-76
2023/04/01 06:49:06;;;;;;;;;;;8.60;73.30;;;;;;4969191;28;19924;-77
2023/04/01 06:51:53;;;;;;;;;;;8.60;73.40;;;;;;4966981;28;20028;-76
2023/04/01 06:54:39;;;;;;;;;;;8.60;73.50;;;;;;4968433;28;20016;-76
2023/04/01 06:57:18;;;;;;;;;;;8.70;73.70;;;;;;4968685;28;19987;-76
2023/04/01 06:59:44;;;;;;;;;;;8.70;73.80;;;;;;4983376;28;19918;-76
2023/04/01 07:02:20;;;;;;;;;;;8.70;73.90;;;;;;4967242;28;20444;-78
2023/04/01 07:04:48;;;;;;;;;;;8.70;73.80;;;;;;4968102;28;19942;-77
2023/04/01 07:07:19;;;;;;;;;;;8.70;73.80;;;;;;4952515;28;19976;-82
2023/04/01 07:09:55;;;;;;;;;;;8.80;73.90;;;;;;4963314;28;20381;-75
2023/04/01 07:12:36;;;;;;;;;;;8.80;73.80;;;;;;4968798;28;19922;-75
2023/04/01 07:15:28;;;;;;;;;;;8.80;73.90;;;;;;4965080;28;19924;-75
2023/04/01 07:17:56;;;;;;;;;;;8.90;74.00;;;;;;4999479;28;19929;-78
2023/04/01 07:20:32;;;;;;;;;;;8.90;73.90;;;;;;4983111;28;20403;-76
2023/04/01 07:23:02;;;;;;;;;;;8.90;73.60;;;;;;4966730;28;19972;-76
2023/04/01 07:25:37;;;;;;;;;;;8.90;73.50;;;;;;4966514;28;20025;-75
2023/04/01 07:28:29;;;;;;;;;;;8.90;73.70;;;;;;4965099;28;19914;-76
2023/04/01 07:31:03;;;;;;;;;;;9.00;73.80;;;;;;4965660;28;19957;-77
2023/04/01 07:33:49;;;;;;;;;;;9.00;73.80;;;;;;4965653;28;19980;-76
2023/04/01 07:36:18;;;;;;;;;;;9.00;73.80;;;;;;4949481;28;19925;-75
2023/04/01 07:38:57;;;;;;;;;;;9.00;73.90;;;;;;4945155;28;20447;-76
2023/04/01 07:41:43;;;;;;;;;;;9.00;73.70;;;;;;4967140;28;19940;-80
2023/04/01 07:44:24;;;;;;;;;;;9.00;73.80;;;;;;4982828;28;19918;-80
2023/04/01 07:47:05;;;;;;;;;;;9.00;73.80;;;;;;4946801;28;19928;-80
2023/04/01 07:49:49;;;;;;;;;;;9.10;73.90;;;;;;4950595;28;19913;-79
2023/04/01 07:52:22;;;;;;;;;;;9.10;73.80;;;;;;4968537;28;19969;-85
2023/04/01 07:55:06;;;;;;;;;;;9.10;73.70;;;;;;4951991;28;20328;-82
2023/04/01 07:57:42;;;;;;;;;;;9.10;73.80;;;;;;4979880;28;20443;-84
2023/04/01 08:00:20;;;;;;;;;;;9.10;73.80;;;;;;4968137;28;20456;-88
2023/04/01 08:03:11;;;;;;;;;;;9.20;73.90;;;;;;4986877;28;20389;-88
2023/04/01 08:05:47;;;;;;;;;;;9.20;73.70;;;;;;4968053;28;20012;-86
2023/04/01 08:08:35;;;;;;;;;;;9.20;73.70;;;;;;4950064;28;19977;-86
2023/04/01 08:11:10;;;;;;;;;;;9.20;73.50;;;;;;4978945;28;19929;-83
2023/04/01 08:13:57;;;;;;;;;;;9.30;73.50;;;;;;4967230;28;19953;-82
2023/04/01 08:16:46;;;;;;;;;;;9.30;73.50;;;;;;4968131;28;19918;-85
2023/04/01 08:19:25;;;;;;;;;;;9.40;73.50;;;;;;4968440;28;19918;-84
2023/04/01 08:21:57;;;;;;;;;;;9.50;73.80;;;;;;4966003;28;19953;-83
2023/04/01 08:24:34;;;;;;;;;;;9.60;73.90;;;;;;4966807;28;19925;-84
2023/04/01 08:27:03;;;;;;;;;;;9.70;74.00;;;;;;4967894;28;19922;-89
2023/04/01 08:29:32;;;;;;;;;;;9.80;74.00;;;;;;4951757;28;19918;-87
2023/04/01 08:32:01;;;;;;;;;;;9.80;73.60;;;;;;4983967;28;19926;-86
2023/04/01 08:34:32;;;;;;;;;;;9.80;73.30;;;;;;4981583;28;19922;-86
2023/04/01 08:37:02;;;;;;;;;;;9.90;72.90;;;;;;4967458;28;19913;-87
2023/04/01 08:39:37;;;;;;;;;;;9.90;72.50;;;;;;4999962;28;20024;-89
2023/04/01 08:42:26;;;;;;;;;;;9.90;72.10;;;;;;4983075;28;19929;-86
2023/04/01 08:45:04;;;;;;;;;;;10.00;72.00;;;;;;4884672;29;19969;-88
2023/04/01 08:47:50;;;;;;;;;;;10.00;71.60;;;;;;4915113;29;20025;-85
2023/04/01 08:50:19;;;;;;;;;;;10.10;71.20;;;;;;4918444;29;20418;-85
2023/04/01 08:53:07;;;;;;;;;;;10.20;70.80;;;;;;4929471;29;20495;-86
2023/04/01 08:55:40;;;;;;;;;;;10.20;70.60;;;;;;4899913;29;19930;-86
2023/04/01 08:58:22;;;;;;;;;;;10.30;70.20;;;;;;4928648;29;19915;-86
2023/04/01 09:01:23;;;;;;;;;;;10.30;70.00;;;;;;4912745;29;19944;-90
2023/04/01 09:03:57;;;;;;;;;;;10.40;69.70;;;;;;4916699;29;19966;-86
2023/04/01 09:06:25;;;;;;;;;;;10.40;69.50;;;;;;4883058;29;20041;-87
2023/04/01 09:09:01;;;;;;;;;;;10.50;69.30;;;;;;4911947;29;20432;-83
2023/04/01 09:11:46;;;;;;;;;;;10.50;69.10;;;;;;4928354;29;19922;-82
2023/04/01 09:14:32;;;;;;;;;;;10.50;68.90;;;;;;4927846;29;19927;-81
2023/04/01 09:17:29;;;;;;;;;;;10.60;68.90;;;;;;4927281;29;19918;-87
2023/04/01 09:20:01;;;;;;;;;;;10.60;68.70;;;;;;4895677;29;19922;-82
2023/04/01 09:22:30;;;;;;;;;;;10.70;68.80;;;;;;4931252;28;19918;-83
2023/04/01 09:25:15;;;;;;;;;;;10.70;68.70;;;;;;4978866;28;19910;-82
2023/04/01 09:27:45;;;;;;;;;;;10.80;68.50;;;;;;4961079;28;20351;-84
2023/04/01 09:30:30;;;;;;;;;;;10.80;68.20;;;;;;4979725;28;19958;-84
2023/04/01 09:33:15;;;;;;;;;;;10.80;68.00;;;;;;4965936;28;19930;-87
2023/04/01 09:35:44;;;;;;;;;;;10.80;68.00;;;;;;4979821;28;19918;-85
2023/04/01 09:38:28;;;;;;;;;;;10.80;67.90;;;;;;4962924;28;20287;-84
2023/04/01 09:40:58;;;;;;;;;;;10.90;67.90;;;;;;4964773;28;20490;-84
2023/04/01 09:43:44;;;;;;;;;;;10.90;67.70;;;;;;4949197;28;20460;-84
2023/04/01 09:46:31;;;;;;;;;;;10.90;67.60;;;;;;4963945;28;20441;-84
2023/04/01 09:49:00;;;;;;;;;;;10.90;67.50;;;;;;4996087;28;19922;-81
2023/04/01 09:51:33;;;;;;;;;;;11.00;67.40;;;;;;4995569;28;19922;-84
2023/04/01 09:54:08;;;;;;;;;;;11.00;67.20;;;;;;4962420;28;19930;-81
2023/04/01 09:56:51;;;;;;;;;;;11.00;67.20;;;;;;4962446;28;19918;-83
2023/04/01 09:59:36;;;;;;;;;;;11.00;66.90;;;;;;4963927;28;19922;-81
2023/04/01 10:02:27;;;;;;;;;;;11.10;66.80;;;;;;4965793;28;19917;-83
2023/04/01 10:05:16;;;;;;;;;;;11.10;66.80;;;;;;4990507;28;20685;-84
2023/04/01 10:08:10;;;;;;;;;;;11.10;66.80;;;;;;4935637;28;19954;-84
2023/04/01 10:10:50;;;;;;;;;;;11.10;66.40;;;;;;4930890;28;19914;-81
2023/04/01 10:13:37;;;;;;;;;;;11.20;66.40;;;;;;4931276;28;19922;-84
2023/04/01 10:16:21;;;;;;;;;;;11.20;66.50;;;;;;4932326;29;19918;-85
2023/04/01 10:18:46;;;;;;;;;;;11.20;66.50;;;;;;4945994;28;19918;-86
2023/04/01 10:21:46;;;;;;;;;;;11.20;66.30;;;;;;4930038;28;19959;-84
2023/04/01 10:24:21;;;;;;;;;;;11.20;66.20;;;;;;4914769;28;19969;-83
2023/04/01 10:27:11;;;;;;;;;;;11.20;66.10;;;;;;4918232;28;19957;-87
2023/04/01 10:29:57;;;;;;;;;;;11.30;65.80;;;;;;4893359;29;20699;-85
2023/04/01 10:32:26;;;;;;;;;;;11.30;65.60;;;;;;4908571;29;19967;-83
2023/04/01 10:35:11;;;;;;;;;;;11.30;65.40;;;;;;4891174;29;19919;-80
2023/04/01 10:37:57;;;;;;;;;;;11.30;65.40;;;;;;4891039;29;20866;-80
2023/04/01 10:40:31;;;;;;;;;;;11.40;65.40;;;;;;4892348;29;20031;-81
2023/04/01 10:43:48;;;;;;;;;;;11.40;65.40;;;;;;4876827;29;19915;-79
2023/04/01 10:46:32;;;;;;;;;;;11.30;64.90;;;;;;4906926;29;20438;-78
2023/04/01 10:49:17;;;;;;;;;;;11.40;64.90;;;;;;4873244;29;19986;-79
2023/04/01 10:52:08;;;;;;;;;;;11.40;64.50;;;;;;4905593;29;20714;-79
2023/04/01 10:55:14;;;;;;;;;;;11.40;63.90;;;;;;4902558;29;19971;-82
2023/04/01 10:58:21;;;;;;;;;;;11.40;63.60;;;;;;4854708;29;20299;-84
2023/04/01 11:01:21;;;;;;;;;;;11.40;63.60;;;;;;4870486;29;19920;-81
2023/04/01 11:04:20;;;;;;;;;;;11.40;63.20;;;;;;4859942;29;19927;-86
2023/04/01 11:07:15;;;;;;;;;;;11.40;63.20;;;;;;4852015;29;19924;-81
2023/04/01 11:09:50;;;;;;;;;;;11.50;63.20;;;;;;4869707;29;19944;-78
2023/04/01 11:12:31;;;;;;;;;;;11.50;63.50;;;;;;4868459;29;20430;-79
2023/04/01 11:15:29;;;;;;;;;;;11.40;63.00;;;;;;4852781;29;19924;-79
2023/04/01 11:18:35;;;;;;;;;;;11.40;62.50;;;;;;4838666;29;19955;-78
2023/04/01 11:21:15;;;;;;;;;;;11.40;61.80;;;;;;4861389;29;20525;-78
2023/04/01 11:24:00;;;;;;;;;;;11.30;61.40;;;;;;4905188;28;19922;-79
2023/04/01 11:26:35;;;;;;;;;;;11.30;61.40;;;;;;4917006;28;19922;-78
2023/04/01 11:29:56;;;;;;;;;;;11.30;61.20;;;;;;4944963;28;19954;-78
2023/04/01 11:32:38;;;;;;;;;;;11.30;61.30;;;;;;4894368;29;20416;-79
2023/04/01 11:35:04;;;;;;;;;;;11.30;61.20;;;;;;4942116;28;19926;-78
2023/04/01 11:37:39;;;;;;;;;;;11.40;61.00;;;;;;4981605;28;19914;-76
2023/04/01 11:40:44;;;;;;;;;;;11.30;60.70;;;;;;4944603;29;19968;-78
2023/04/01 11:43:33;;;;;;;;;;;11.30;60.30;;;;;;4875423;29;20368;-79
2023/04/01 11:46:23;;;;;;;;;;;11.30;59.60;;;;;;4887720;29;19943;-76
2023/04/01 11:48:52;;;;;;;;;;;11.30;59.70;;;;;;4878132;29;19971;-78
2023/04/01 11:51:21;;;;;;;;;;;11.30;59.90;;;;;;4875978;29;20867;-78
2023/04/01 11:53:53;;;;;;;;;;;11.30;59.70;;;;;;4892680;29;19924;-80
2023/04/01 11:56:19;;;;;;;;;;;11.30;59.80;;;;;;4892783;29;20623;-79
2023/04/01 11:58:56;;;;;;;;;;;11.30;59.80;;;;;;4892391;29;19918;-78
2023/04/01 12:01:22;;;;;;;;;;;11.40;60.00;;;;;;4876428;29;19919;-80
2023/04/01 12:03:54;;;;;;;;;;;11.40;60.00;;;;;;4873849;29;19919;-80
2023/04/01 12:06:22;;;;;;;;;;;11.40;60.00;;;;;;4891488;29;19930;-78
2023/04/01 12:09:00;;;;;;;;;;;11.40;59.50;;;;;;4892810;29;20344;-81
2023/04/01 12:11:33;;;;;;;;;;;11.40;59.70;;;;;;4876654;29;19927;-79
2023/04/01 12:14:13;;;;;;;;;;;11.40;59.30;;;;;;4893827;29;19934;-80
2023/04/01 12:16:57;;;;;;;;;;;11.40;59.40;;;;;;4873660;29;20009;-79
2023/04/01 12:19:32;;;;;;;;;;;11.40;59.50;;;;;;4876736;29;20271;-80
2023/04/01 12:22:04;;;;;;;;;;;11.50;59.60;;;;;;4968191;28;20024;-79
2023/04/01 12:24:33;;;;;;;;;;;11.50;59.50;;;;;;4983063;28;19928;-79
2023/04/01 12:26:59;;;;;;;;;;;11.50;59.50;;;;;;4982483;28;20000;-79
2023/04/01 12:29:38;;;;;;;;;;;11.50;59.50;;;;;;4965161;28;19921;-80
2023/04/01 12:32:19;;;;;;;;;;;11.50;59.00;;;;;;4929467;28;19923;-80
2023/04/01 12:34:58;;;;;;;;;;;11.50;59.10;;;;;;4942359;28;20072;-79
2023/04/01 12:37:32;;;;;;;;;;;11.50;59.20;;;;;;4945635;28;19920;-79
2023/04/01 12:40:17;;;;;;;;;;;11.50;59.40;;;;;;4925648;29;19926;-78
2023/04/01 12:43:01;;;;;;;;;;;11.50;59.10;;;;;;4947313;28;19929;-80
2023/04/01 12:45:29;;;;;;;;;;;11.50;59.20;;;;;;4930405;28;19945;-82
2023/04/01 12:48:08;;;;;;;;;;;11.50;59.10;;;;;;4929810;28;19945;-81
2023/04/01 12:50:43;;;;;;;;;;;11.50;58.90;;;;;;4914619;28;19918;-84
2023/04/01 12:53:39;;;;;;;;;;;11.60;59.10;;;;;;4946367;28;19993;-80
2023/04/01 12:56:09;;;;;;;;;;;11.60;59.00;;;;;;4943085;28;20378;-81
2023/04/01 12:58:54;;;;;;;;;;;11.60;58.60;;;;;;4930632;28;19920;-79
2023/04/01 13:01:19;;;;;;;;;;;11.60;58.90;;;;;;4928590;29;19925;-78
2023/04/01 13:03:48;;;;;;;;;;;11.60;58.70;;;;;;4947453;28;19919;-79
2023/04/01 13:06:15;;;;;;;;;;;11.60;58.60;;;;;;4946583;28;19918;-80
2023/04/01 13:08:47;;;;;;;;;;;11.60;59.00;;;;;;4929383;28;19965;-80
2023/04/01 13:11:13;;;;;;;;;;;11.60;59.00;;;;;;4946839;28;21037;-80
2023/04/01 13:13:45;;;;;;;;;;;11.60;59.30;;;;;;4947114;28;19926;-79
2023/04/01 13:16:16;;;;;;;;;;;11.60;59.60;;;;;;4946399;29;19921;-80
2023/04/01 13:18:54;;;;;;;;;;;11.50;59.90;;;;;;4929640;28;19938;-80
2023/04/01 13:21:51;;;;;;;;;;;11.60;60.10;;;;;;4929396;28;19982;-78
2023/04/01 13:24:20;;;;;;;;;;;11.60;60.10;;;;;;4921539;28;20156;-79
2023/04/01 13:26:53;;;;;;;;;;;11.60;60.00;;;;;;4929806;28;20472;-79
2023/04/01 13:29:25;;;;;;;;;;;11.50;60.20;;;;;;4944831;28;19918;-78
2023/04/01 13:31:51;;;;;;;;;;;11.50;60.20;;;;;;4978793;28;19922;-79
2023/04/01 13:34:37;;;;;;;;;;;11.50;60.00;;;;;;4966972;28;19922;-78
2023/04/01 13:37:09;;;;;;;;;;;11.50;60.40;;;;;;4966340;28;19918;-80
2023/04/01 13:40:02;;;;;;;;;;;11.50;59.90;;;;;;4970513;28;19929;-78
2023/04/01 13:42:40;;;;;;;;;;;11.50;60.10;;;;;;4984514;28;20324;-80
2023/04/01 13:45:14;;;;;;;;;;;11.50;60.00;;;;;;4970377;28;19917;-83
2023/04/01 13:47:40;;;;;;;;;;;11.40;60.00;;;;;;5001599;28;19918;-80
2023/04/01 13:50:05;;;;;;;;;;;11.40;59.90;;;;;;4970112;28;20352;-81
2023/04/01 13:52:54;;;;;;;;;;;11.40;59.90;;;;;;4969749;28;20021;-79
2023/04/01 13:55:31;;;;;;;;;;;11.30;60.30;;;;;;4970127;28;19918;-78
2023/04/01 13:58:03;;;;;;;;;;;11.40;60.20;;;;;;5000646;28;19925;-79
2023/04/01 14:00:47;;;;;;;;;;;11.40;60.10;;;;;;4968691;28;19941;-79
2023/04/01 14:03:28;;;;;;;;;;;11.40;60.20;;;;;;4984123;28;19949;-79
2023/04/01 14:06:00;;;;;;;;;;;11.40;60.20;;;;;;4953240;28;20051;-78
2023/04/01 14:08:32;;;;;;;;;;;11.40;60.40;;;;;;4968741;28;19960;-79
2023/04/01 14:11:19;;;;;;;;;;;11.30;60.00;;;;;;4967630;28;19922;-79
2023/04/01 14:13:57;;;;;;;;;;;11.30;60.20;;;;;;4969599;28;20564;-79
2023/04/01 14:16:34;;;;;;;;;;;11.40;60.20;;;;;;4968331;28;20426;-78
2023/04/01 14:19:11;;;;;;;;;;;11.30;60.80;;;;;;4936171;28;20388;-79
2023/04/01 14:21:56;;;;;;;;;;;11.30;60.40;;;;;;4983915;28;19925;-78
2023/04/01 14:24:31;;;;;;;;;;;11.30;60.40;;;;;;4968228;28;19925;-80
2023/04/01 14:26:57;;;;;;;;;;;11.30;60.80;;;;;;4969074;28;19918;-79
2023/04/01 14:29:25;;;;;;;;;;;11.20;60.90;;;;;;4969508;28;19925;-76
2023/04/01 14:31:51;;;;;;;;;;;11.20;61.20;;;;;;4951342;28;20029;-77
2023/04/01 14:34:17;;;;;;;;;;;11.20;61.20;;;;;;4933151;28;20032;-77
2023/04/01 14:36:49;;;;;;;;;;;11.20;61.40;;;;;;4965689;28;20358;-78
2023/04/01 14:39:33;;;;;;;;;;;11.20;61.60;;;;;;4948633;28;20313;-78
2023/04/01 14:42:15;;;;;;;;;;;11.20;61.60;;;;;;4932293;28;20259;-78
2023/04/01 14:44:41;;;;;;;;;;;11.20;61.90;;;;;;4964953;28;20021;-80
2023/04/01 14:47:26;;;;;;;;;;;11.10;62.10;;;;;;4966007;28;20426;-83
2023/04/01 14:50:10;;;;;;;;;;;11.10;62.30;;;;;;4968656;28;20194;-82
2023/04/01 14:52:38;;;;;;;;;;;11.10;62.60;;;;;;4951154;28;19940;-84
2023/04/01 14:55:18;;;;;;;;;;;11.10;62.90;;;;;;4950789;28;19914;-84
2023/04/01 14:57:57;;;;;;;;;;;11.10;63.10;;;;;;4931899;28;19988;-83
2023/04/01 15:00:23;;;;;;;;;;;11.10;63.50;;;;;;4949298;28;19918;-80
2023/04/01 15:03:01;;;;;;;;;;;11.10;63.80;;;;;;4949604;28;19918;-81